sensor_id;sensor_type;location;lat;lon;timestamp;temperature;humidity
56771;DHT22;42641;59.794;17.616;2023-05-02T00:01:33;5.60;99.90
56771;DHT22;42641;59.794;17.616;2023-05-02T00:04:01;5.60;99.90
56771;DHT22;42641;59.794;17.616;2023-05-02T00:06:29;5.50;99.90
56771;DHT22;42641;59.794;17.616;2023-05-02T00:08:56;5.40;99.90
56771;DHT22;42641;59.794;17.616;2023-05-02T00:11:23;5.40;99.90
56771;DHT22;42641;59.794;17.616;2023-05-02T00:13:50;5.40;99.90
56771;DHT22;42641;59.794;17.616;2023-05-02T00:16:16;5.40;99.90
56771;DHT22;42641;59.794;17.616;2023-05-02T00:18:43;5.30;99.90
56771;DHT22;42641;59.794;17.616;2023-05-02T00:21:09;5.30;99.90
56771;DHT22;42641;59.794;17.616;2023-05-02T00:23:36;5.20;99.90
56771;DHT22;42641;59.794;17.616;2023-05-02T00:26:03;5.20;99.90
56771;DHT22;42641;59.794;17.616;2023-05-02T00:28:33;5.20;99.90
56771;DHT22;42641;59.794;17.616;2023-05-02T00:31:00;5.10;99.90
56771;DHT22;42641;59.794;17.616;2023-05-02T00:33:27;5.10;99.90
56771;DHT22;42641;59.794;17.616;2023-05-02T00:35:53;5.10;99.90
56771;DHT22;42641;59.794;17.616;2023-05-02T00:38:19;5.10;99.90
56771;DHT22;42641;59.794;17.616;2023-05-02T00:40:48;5.10;99.90
56771;DHT22;42641;59.794;17.616;2023-05-02T00:43:16;5.10;99.90
56771;DHT22;42641;59.794;17.616;2023-05-02T00:45:43;5.10;99.90
56771;DHT22;42641;59.794;17.616;2023-05-02T00:48:11;5.00;99.90
56771;DHT22;42641;59.794;17.616;2023-05-02T00:50:39;5.00;99.90
56771;DHT22;42641;59.794;17.616;2023-05-02T00:53:08;5.00;99.90
56771;DHT22;42641;59.794;17.616;2023-05-02T00:55:35;4.90;99.90
56771;DHT22;42641;59.794;17.616;2023-05-02T00:58:04;4.90;99.90
56771;DHT22;42641;59.794;17.616;2023-05-02T01:01:02;4.90;99.90
56771;DHT22;42641;59.794;17.616;2023-05-02T01:03:45;4.80;99.90
56771;DHT22;42641;59.794;17.616;2023-05-02T01:06:35;4.80;99.90
56771;DHT22;42641;59.794;17.616;2023-05-02T01:12:28;4.80;99.90
56771;DHT22;42641;59.794;17.616;2023-05-02T01:14:58;4.80;99.90
56771;DHT22;42641;59.794;17.616;2023-05-02T01:17:28;4.70;99.90
56771;DHT22;42641;59.794;17.616;2023-05-02T01:19:58;4.70;99.90
56771;DHT22;42641;59.794;17.616;2023-05-02T01:22:27;4.80;99.90
56771;DHT22;42641;59.794;17.616;2023-05-02T01:25:22;4.70;99.90
56771;DHT22;42641;59.794;17.616;2023-05-02T01:28:01;4.70;99.90
56771;DHT22;42641;59.794;17.616;2023-05-02T01:30:32;4.70;99.90
56771;DHT22;42641;59.794;17.616;2023-05-02T01:33:02;4.70;99.90
56771;DHT22;42641;59.794;17.616;2023-05-02T01:35:31;4.70;99.90
56771;DHT22;42641;59.794;17.616;2023-05-02T01:37:59;4.70;99.90
56771;DHT22;42641;59.794;17.616;2023-05-02T01:40:28;4.60;99.90
56771;DHT22;42641;59.794;17.616;2023-05-02T01:42:56;4.50;99.90
56771;DHT22;42641;59.794;17.616;2023-05-02T01:45:24;4.40;99.90
56771;DHT22;42641;59.794;17.616;2023-05-02T01:47:51;4.40;99.90
56771;DHT22;42641;59.794;17.616;2023-05-02T01:50:22;4.30;99.90
56771;DHT22;42641;59.794;17.616;2023-05-02T01:52:51;4.30;99.90
56771;DHT22;42641;59.794;17.616;2023-05-02T01:55:19;4.40;99.90
56771;DHT22;42641;59.794;17.616;2023-05-02T01:57:47;4.30;99.90
56771;DHT22;42641;59.794;17.616;2023-05-02T02:00:16;4.30;99.90
56771;DHT22;42641;59.794;17.616;2023-05-02T02:02:45;4.30;99.90
56771;DHT22;42641;59.794;17.616;2023-05-02T02:05:14;4.30;99.90
56771;DHT22;42641;59.794;17.616;2023-05-02T02:07:42;4.30;99.90
56771;DHT22;42641;59.794;17.616;2023-05-02T02:10:09;4.20;99.90
56771;DHT22;42641;59.794;17.616;2023-05-02T02:12:42;4.20;99.90
56771;DHT22;42641;59.794;17.616;2023-05-02T02:15:29;4.20;99.90
56771;DHT22;42641;59.794;17.616;2023-05-02T02:18:01;4.10;99.90
56771;DHT22;42641;59.794;17.616;2023-05-02T02:20:31;4.10;99.90
56771;DHT22;42641;59.794;17.616;2023-05-02T02:23:00;4.20;99.90
56771;DHT22;42641;59.794;17.616;2023-05-02T02:25:28;4.10;99.90
56771;DHT22;42641;59.794;17.616;2023-05-02T02:27:56;4.10;99.90
56771;DHT22;42641;59.794;17.616;2023-05-02T02:30:22;4.10;99.90
56771;DHT22;42641;59.794;17.616;2023-05-02T02:32:48;4.10;99.90
56771;DHT22;42641;59.794;17.616;2023-05-02T02:35:15;4.10;99.90
56771;DHT22;42641;59.794;17.616;2023-05-02T02:37:46;4.00;99.90
56771;DHT22;42641;59.794;17.616;2023-05-02T02:43:32;4.20;99.90
56771;DHT22;42641;59.794;17.616;2023-05-02T02:48:42;4.20;99.90
56771;DHT22;42641;59.794;17.616;2023-05-02T02:51:29;4.20;99.90
56771;DHT22;42641;59.794;17.616;2023-05-02T02:56:58;4.20;99.90
56771;DHT22;42641;59.794;17.616;2023-05-02T02:59:31;4.20;99.90
56771;DHT22;42641;59.794;17.616;2023-05-02T03:02:08;4.20;99.90
56771;DHT22;42641;59.794;17.616;2023-05-02T03:04:42;4.10;99.90
56771;DHT22;42641;59.794;17.616;2023-05-02T03:07:09;4.10;99.90
56771;DHT22;42641;59.794;17.616;2023-05-02T03:09:43;4.10;99.90
56771;DHT22;42641;59.794;17.616;2023-05-02T03:12:13;4.10;99.90
56771;DHT22;42641;59.794;17.616;2023-05-02T03:14:40;4.10;99.90
56771;DHT22;42641;59.794;17.616;2023-05-02T03:17:07;4.10;99.90
56771;DHT22;42641;59.794;17.616;2023-05-02T03:19:34;4.10;99.90
56771;DHT22;42641;59.794;17.616;2023-05-02T03:22:02;4.10;99.90
56771;DHT22;42641;59.794;17.616;2023-05-02T03:24:29;4.10;99.90
56771;DHT22;42641;59.794;17.616;2023-05-02T03:26:57;4.10;99.90
56771;DHT22;42641;59.794;17.616;2023-05-02T03:29:29;4.10;99.90
56771;DHT22;42641;59.794;17.616;2023-05-02T03:31:55;4.20;99.90
56771;DHT22;42641;59.794;17.616;2023-05-02T03:34:23;4.10;99.90
56771;DHT22;42641;59.794;17.616;2023-05-02T03:36:51;4.20;99.90
56771;DHT22;42641;59.794;17.616;2023-05-02T03:39:17;4.20;99.90
56771;DHT22;42641;59.794;17.616;2023-05-02T03:41:45;4.20;99.90
56771;DHT22;42641;59.794;17.616;2023-05-02T03:44:16;4.20;99.90
56771;DHT22;42641;59.794;17.616;2023-05-02T03:46:43;4.20;99.90
56771;DHT22;42641;59.794;17.616;2023-05-02T03:49:11;4.20;99.90
56771;DHT22;42641;59.794;17.616;2023-05-02T03:51:42;4.20;99.90
56771;DHT22;42641;59.794;17.616;2023-05-02T03:54:09;4.20;99.90
56771;DHT22;42641;59.794;17.616;2023-05-02T03:56:38;4.20;99.90
56771;DHT22;42641;59.794;17.616;2023-05-02T03:59:17;4.20;99.90
56771;DHT22;42641;59.794;17.616;2023-05-02T04:01:44;4.20;99.90
56771;DHT22;42641;59.794;17.616;2023-05-02T04:04:13;4.30;99.90
56771;DHT22;42641;59.794;17.616;2023-05-02T04:06:46;4.20;99.90
56771;DHT22;42641;59.794;17.616;2023-05-02T04:09:13;4.30;99.90
56771;DHT22;42641;59.794;17.616;2023-05-02T04:11:46;4.30;99.90
56771;DHT22;42641;59.794;17.616;2023-05-02T04:14:14;4.20;99.90
56771;DHT22;42641;59.794;17.616;2023-05-02T04:16:47;4.20;99.90
56771;DHT22;42641;59.794;17.616;2023-05-02T04:19:15;4.20;99.90
56771;DHT22;42641;59.794;17.616;2023-05-02T04:21:44;4.20;99.90
56771;DHT22;42641;59.794;17.616;2023-05-02T04:24:11;4.20;99.90
56771;DHT22;42641;59.794;17.616;2023-05-02T04:26:38;4.30;99.90
56771;DHT22;42641;59.794;17.616;2023-05-02T04:29:08;4.30;99.90
56771;DHT22;42641;59.794;17.616;2023-05-02T04:31:35;4.40;99.90
56771;DHT22;42641;59.794;17.616;2023-05-02T04:34:03;4.40;99.90
56771;DHT22;42641;59.794;17.616;2023-05-02T04:36:34;4.30;99.90
56771;DHT22;42641;59.794;17.616;2023-05-02T04:39:01;4.30;99.90
56771;DHT22;42641;59.794;17.616;2023-05-02T04:41:31;4.30;99.90
56771;DHT22;42641;59.794;17.616;2023-05-02T04:44:03;4.40;99.90
56771;DHT22;42641;59.794;17.616;2023-05-02T04:46:29;4.40;99.90
56771;DHT22;42641;59.794;17.616;2023-05-02T04:48:56;4.40;99.90
56771;DHT22;42641;59.794;17.616;2023-05-02T04:51:23;4.40;99.90
56771;DHT22;42641;59.794;17.616;2023-05-02T04:53:49;4.40;99.90
56771;DHT22;42641;59.794;17.616;2023-05-02T04:56:16;4.40;99.90
56771;DHT22;42641;59.794;17.616;2023-05-02T04:58:43;4.40;99.90
56771;DHT22;42641;59.794;17.616;2023-05-02T05:01:11;4.50;99.90
56771;DHT22;42641;59.794;17.616;2023-05-02T05:03:37;4.50;99.90
56771;DHT22;42641;59.794;17.616;2023-05-02T05:06:06;4.50;99.90
56771;DHT22;42641;59.794;17.616;2023-05-02T05:08:33;4.60;99.90
56771;DHT22;42641;59.794;17.616;2023-05-02T05:10:59;4.50;99.90
56771;DHT22;42641;59.794;17.616;2023-05-02T05:13:27;4.50;99.90
56771;DHT22;42641;59.794;17.616;2023-05-02T05:15:54;4.50;99.90
56771;DHT22;42641;59.794;17.616;2023-05-02T05:18:25;4.50;99.90
56771;DHT22;42641;59.794;17.616;2023-05-02T05:20:51;4.60;99.90
56771;DHT22;42641;59.794;17.616;2023-05-02T05:23:18;4.60;99.90
56771;DHT22;42641;59.794;17.616;2023-05-02T05:25:44;4.60;99.90
56771;DHT22;42641;59.794;17.616;2023-05-02T05:28:13;4.70;99.90
56771;DHT22;42641;59.794;17.616;2023-05-02T05:30:39;4.70;99.90
56771;DHT22;42641;59.794;17.616;2023-05-02T05:33:09;4.70;99.90
56771;DHT22;42641;59.794;17.616;2023-05-02T05:35:36;4.70;99.90
56771;DHT22;42641;59.794;17.616;2023-05-02T05:38:02;4.80;99.90
56771;DHT22;42641;59.794;17.616;2023-05-02T05:40:32;4.80;99.90
56771;DHT22;42641;59.794;17.616;2023-05-02T05:42:59;4.80;99.90
56771;DHT22;42641;59.794;17.616;2023-05-02T05:45:30;4.70;99.90
56771;DHT22;42641;59.794;17.616;2023-05-02T05:47:57;4.70;99.90
56771;DHT22;42641;59.794;17.616;2023-05-02T05:50:26;4.70;99.90
56771;DHT22;42641;59.794;17.616;2023-05-02T05:52:53;4.70;99.90
56771;DHT22;42641;59.794;17.616;2023-05-02T05:55:20;4.70;99.90
56771;DHT22;42641;59.794;17.616;2023-05-02T05:57:46;4.70;99.90
56771;DHT22;42641;59.794;17.616;2023-05-02T06:00:13;4.60;99.90
56771;DHT22;42641;59.794;17.616;2023-05-02T06:02:45;4.70;99.90
56771;DHT22;42641;59.794;17.616;2023-05-02T06:05:19;4.60;99.90
56771;DHT22;42641;59.794;17.616;2023-05-02T06:07:45;4.70;99.90
56771;DHT22;42641;59.794;17.616;2023-05-02T06:10:12;4.70;99.90
56771;DHT22;42641;59.794;17.616;2023-05-02T06:12:41;4.70;99.90
56771;DHT22;42641;59.794;17.616;2023-05-02T06:15:09;4.70;99.90
56771;DHT22;42641;59.794;17.616;2023-05-02T06:17:35;4.70;99.90
56771;DHT22;42641;59.794;17.616;2023-05-02T06:20:02;4.70;99.90
56771;DHT22;42641;59.794;17.616;2023-05-02T06:22:29;4.70;99.90
56771;DHT22;42641;59.794;17.616;2023-05-02T06:24:55;4.80;99.90
56771;DHT22;42641;59.794;17.616;2023-05-02T06:27:22;4.80;99.90
56771;DHT22;42641;59.794;17.616;2023-05-02T06:29:52;4.80;99.90
56771;DHT22;42641;59.794;17.616;2023-05-02T06:32:19;4.90;99.90
56771;DHT22;42641;59.794;17.616;2023-05-02T06:34:45;5.00;99.90
56771;DHT22;42641;59.794;17.616;2023-05-02T06:37:11;5.00;99.90
56771;DHT22;42641;59.794;17.616;2023-05-02T06:39:38;5.00;99.90
56771;DHT22;42641;59.794;17.616;2023-05-02T06:42:04;5.10;99.90
56771;DHT22;42641;59.794;17.616;2023-05-02T06:44:32;5.20;99.90
56771;DHT22;42641;59.794;17.616;2023-05-02T06:46:59;5.30;99.90
56771;DHT22;42641;59.794;17.616;2023-05-02T06:49:25;5.30;99.90
56771;DHT22;42641;59.794;17.616;2023-05-02T06:51:52;5.30;99.90
56771;DHT22;42641;59.794;17.616;2023-05-02T06:54:18;5.30;99.90
56771;DHT22;42641;59.794;17.616;2023-05-02T06:56:46;5.40;99.90
56771;DHT22;42641;59.794;17.616;2023-05-02T06:59:13;5.40;99.90
56771;DHT22;42641;59.794;17.616;2023-05-02T07:01:43;5.50;99.90
56771;DHT22;42641;59.794;17.616;2023-05-02T07:04:09;5.50;99.90
56771;DHT22;42641;59.794;17.616;2023-05-02T07:06:36;5.40;99.90
56771;DHT22;42641;59.794;17.616;2023-05-02T07:09:02;5.60;99.90
56771;DHT22;42641;59.794;17.616;2023-05-02T07:11:29;5.70;99.90
56771;DHT22;42641;59.794;17.616;2023-05-02T07:13:55;5.60;99.90
56771;DHT22;42641;59.794;17.616;2023-05-02T07:16:22;5.90;99.90
56771;DHT22;42641;59.794;17.616;2023-05-02T07:18:48;6.20;99.90
56771;DHT22;42641;59.794;17.616;2023-05-02T07:21:15;6.30;99.90
56771;DHT22;42641;59.794;17.616;2023-05-02T07:23:43;6.30;99.90
56771;DHT22;42641;59.794;17.616;2023-05-02T07:26:09;6.30;99.90
56771;DHT22;42641;59.794;17.616;2023-05-02T07:28:36;6.20;99.90
56771;DHT22;42641;59.794;17.616;2023-05-02T07:31:03;6.20;99.90
56771;DHT22;42641;59.794;17.616;2023-05-02T07:33:30;6.10;99.90
56771;DHT22;42641;59.794;17.616;2023-05-02T07:35:56;6.10;99.90
56771;DHT22;42641;59.794;17.616;2023-05-02T07:38:23;6.20;99.90
56771;DHT22;42641;59.794;17.616;2023-05-02T07:40:49;6.20;99.90
56771;DHT22;42641;59.794;17.616;2023-05-02T07:43:16;6.30;99.90
56771;DHT22;42641;59.794;17.616;2023-05-02T07:45:42;6.50;99.90
56771;DHT22;42641;59.794;17.616;2023-05-02T07:48:08;6.50;99.90
56771;DHT22;42641;59.794;17.616;2023-05-02T07:50:35;6.50;99.90
56771;DHT22;42641;59.794;17.616;2023-05-02T07:53:01;6.30;99.90
56771;DHT22;42641;59.794;17.616;2023-05-02T07:55:28;6.30;99.90
56771;DHT22;42641;59.794;17.616;2023-05-02T07:57:56;6.30;99.90
56771;DHT22;42641;59.794;17.616;2023-05-02T08:00:22;6.40;99.90
56771;DHT22;42641;59.794;17.616;2023-05-02T08:02:49;6.60;99.90
56771;DHT22;42641;59.794;17.616;2023-05-02T08:05:15;6.90;99.90
56771;DHT22;42641;59.794;17.616;2023-05-02T08:07:42;7.20;99.90
56771;DHT22;42641;59.794;17.616;2023-05-02T08:10:09;7.20;99.90
56771;DHT22;42641;59.794;17.616;2023-05-02T08:12:39;7.10;99.90
56771;DHT22;42641;59.794;17.616;2023-05-02T08:15:11;7.10;99.90
56771;DHT22;42641;59.794;17.616;2023-05-02T08:17:38;7.20;99.90
56771;DHT22;42641;59.794;17.616;2023-05-02T08:20:05;7.20;99.90
56771;DHT22;42641;59.794;17.616;2023-05-02T08:22:32;7.20;99.90
56771;DHT22;42641;59.794;17.616;2023-05-02T08:24:58;7.50;99.90
56771;DHT22;42641;59.794;17.616;2023-05-02T08:27:25;7.80;99.90
56771;DHT22;42641;59.794;17.616;2023-05-02T08:29:51;8.10;99.90
56771;DHT22;42641;59.794;17.616;2023-05-02T08:32:18;8.50;99.90
56771;DHT22;42641;59.794;17.616;2023-05-02T08:34:44;8.70;99.90
56771;DHT22;42641;59.794;17.616;2023-05-02T08:37:10;8.50;99.90
56771;DHT22;42641;59.794;17.616;2023-05-02T08:39:38;8.00;99.90
56771;DHT22;42641;59.794;17.616;2023-05-02T08:42:06;7.70;99.90
56771;DHT22;42641;59.794;17.616;2023-05-02T08:44:32;7.60;99.90
56771;DHT22;42641;59.794;17.616;2023-05-02T08:47:00;7.80;99.90
56771;DHT22;42641;59.794;17.616;2023-05-02T08:49:29;8.20;99.90
56771;DHT22;42641;59.794;17.616;2023-05-02T08:51:58;8.50;99.90
56771;DHT22;42641;59.794;17.616;2023-05-02T08:54:24;8.90;99.90
56771;DHT22;42641;59.794;17.616;2023-05-02T08:56:53;8.90;99.90
56771;DHT22;42641;59.794;17.616;2023-05-02T08:59:19;8.70;99.90
56771;DHT22;42641;59.794;17.616;2023-05-02T09:01:48;8.50;99.90
56771;DHT22;42641;59.794;17.616;2023-05-02T09:04:22;8.60;99.90
56771;DHT22;42641;59.794;17.616;2023-05-02T09:06:49;8.90;99.90
56771;DHT22;42641;59.794;17.616;2023-05-02T09:09:16;9.10;99.90
56771;DHT22;42641;59.794;17.616;2023-05-02T09:11:45;9.20;99.90
56771;DHT22;42641;59.794;17.616;2023-05-02T09:14:16;9.40;99.90
56771;DHT22;42641;59.794;17.616;2023-05-02T09:16:43;9.50;99.90
56771;DHT22;42641;59.794;17.616;2023-05-02T09:19:10;9.60;99.90
56771;DHT22;42641;59.794;17.616;2023-05-02T09:21:48;9.90;99.90
56771;DHT22;42641;59.794;17.616;2023-05-02T09:24:20;10.00;99.90
56771;DHT22;42641;59.794;17.616;2023-05-02T09:27:01;10.10;99.90
56771;DHT22;42641;59.794;17.616;2023-05-02T09:29:32;10.00;99.90
56771;DHT22;42641;59.794;17.616;2023-05-02T09:32:04;9.60;99.90
56771;DHT22;42641;59.794;17.616;2023-05-02T09:34:32;9.30;99.90
56771;DHT22;42641;59.794;17.616;2023-05-02T09:36:59;9.30;99.90
56771;DHT22;42641;59.794;17.616;2023-05-02T09:39:27;9.50;99.90
56771;DHT22;42641;59.794;17.616;2023-05-02T09:41:54;9.90;99.90
56771;DHT22;42641;59.794;17.616;2023-05-02T09:44:23;10.00;99.90
56771;DHT22;42641;59.794;17.616;2023-05-02T09:46:51;10.00;99.90
56771;DHT22;42641;59.794;17.616;2023-05-02T09:49:18;10.00;99.90
56771;DHT22;42641;59.794;17.616;2023-05-02T09:51:46;9.70;99.90
56771;DHT22;42641;59.794;17.616;2023-05-02T09:54:34;9.30;99.90
56771;DHT22;42641;59.794;17.616;2023-05-02T09:57:01;9.30;99.90
56771;DHT22;42641;59.794;17.616;2023-05-02T09:59:29;9.80;99.90
56771;DHT22;42641;59.794;17.616;2023-05-02T10:01:56;10.50;99.90
56771;DHT22;42641;59.794;17.616;2023-05-02T10:04:24;11.10;99.90
56771;DHT22;42641;59.794;17.616;2023-05-02T10:06:54;11.10;99.90
56771;DHT22;42641;59.794;17.616;2023-05-02T10:09:21;11.00;99.90
56771;DHT22;42641;59.794;17.616;2023-05-02T10:11:52;10.70;99.90
56771;DHT22;42641;59.794;17.616;2023-05-02T10:14:20;10.30;99.90
56771;DHT22;42641;59.794;17.616;2023-05-02T10:17:00;10.20;99.90
56771;DHT22;42641;59.794;17.616;2023-05-02T10:19:47;10.40;99.90
56771;DHT22;42641;59.794;17.616;2023-05-02T10:22:18;10.70;99.90
56771;DHT22;42641;59.794;17.616;2023-05-02T10:24:48;11.20;99.90
56771;DHT22;42641;59.794;17.616;2023-05-02T10:27:15;11.40;99.90
56771;DHT22;42641;59.794;17.616;2023-05-02T10:29:41;11.20;99.90
56771;DHT22;42641;59.794;17.616;2023-05-02T10:32:10;11.00;99.90
56771;DHT22;42641;59.794;17.616;2023-05-02T10:34:38;11.30;99.90
56771;DHT22;42641;59.794;17.616;2023-05-02T10:37:05;11.50;99.90
56771;DHT22;42641;59.794;17.616;2023-05-02T10:39:32;11.70;99.90
56771;DHT22;42641;59.794;17.616;2023-05-02T10:42:00;12.00;99.90
56771;DHT22;42641;59.794;17.616;2023-05-02T10:44:33;11.40;99.70
56771;DHT22;42641;59.794;17.616;2023-05-02T10:47:00;11.20;99.90
56771;DHT22;42641;59.794;17.616;2023-05-02T10:49:26;10.90;99.90
56771;DHT22;42641;59.794;17.616;2023-05-02T10:51:54;11.00;99.90
56771;DHT22;42641;59.794;17.616;2023-05-02T10:54:21;11.40;99.90
56771;DHT22;42641;59.794;17.616;2023-05-02T10:59:41;11.60;96.80
56771;DHT22;42641;59.794;17.616;2023-05-02T11:05:02;12.10;98.30
56771;DHT22;42641;59.794;17.616;2023-05-02T11:07:35;12.40;97.70
56771;DHT22;42641;59.794;17.616;2023-05-02T11:12:54;12.90;95.80
56771;DHT22;42641;59.794;17.616;2023-05-02T11:18:03;12.60;96.20
56771;DHT22;42641;59.794;17.616;2023-05-02T11:20:33;12.70;94.80
56771;DHT22;42641;59.794;17.616;2023-05-02T11:25:48;13.40;91.40
56771;DHT22;42641;59.794;17.616;2023-05-02T11:28:38;13.70;90.30
56771;DHT22;42641;59.794;17.616;2023-05-02T11:31:55;14.00;93.10
56771;DHT22;42641;59.794;17.616;2023-05-02T11:33:58;14.90;92.10
56771;DHT22;42641;59.794;17.616;2023-05-02T11:36:33;15.50;86.90
56771;DHT22;42641;59.794;17.616;2023-05-02T11:39:00;15.60;85.00
56771;DHT22;42641;59.794;17.616;2023-05-02T11:41:38;15.70;76.50
56771;DHT22;42641;59.794;17.616;2023-05-02T11:44:05;15.90;76.00
56771;DHT22;42641;59.794;17.616;2023-05-02T11:46:31;15.90;79.70
56771;DHT22;42641;59.794;17.616;2023-05-02T11:48:59;16.30;80.00
56771;DHT22;42641;59.794;17.616;2023-05-02T11:51:26;16.50;73.20
56771;DHT22;42641;59.794;17.616;2023-05-02T11:53:53;16.70;72.50
56771;DHT22;42641;59.794;17.616;2023-05-02T11:56:23;16.40;70.60
56771;DHT22;42641;59.794;17.616;2023-05-02T11:59:02;15.90;66.50
56771;DHT22;42641;59.794;17.616;2023-05-02T12:01:29;16.10;69.20
56771;DHT22;42641;59.794;17.616;2023-05-02T12:04:06;16.20;67.50
56771;DHT22;42641;59.794;17.616;2023-05-02T12:06:34;15.90;70.70
56771;DHT22;42641;59.794;17.616;2023-05-02T12:09:13;16.00;69.60
56771;DHT22;42641;59.794;17.616;2023-05-02T12:11:42;15.40;67.80
56771;DHT22;42641;59.794;17.616;2023-05-02T12:14:10;15.10;65.30
56771;DHT22;42641;59.794;17.616;2023-05-02T12:16:36;14.80;67.20
56771;DHT22;42641;59.794;17.616;2023-05-02T12:19:03;14.40;70.30
56771;DHT22;42641;59.794;17.616;2023-05-02T12:21:29;14.40;72.10
56771;DHT22;42641;59.794;17.616;2023-05-02T12:23:59;15.00;74.80
56771;DHT22;42641;59.794;17.616;2023-05-02T12:26:26;15.00;73.90
56771;DHT22;42641;59.794;17.616;2023-05-02T12:28:57;14.70;72.90
56771;DHT22;42641;59.794;17.616;2023-05-02T12:31:24;14.60;73.50
56771;DHT22;42641;59.794;17.616;2023-05-02T12:33:53;14.90;72.30
56771;DHT22;42641;59.794;17.616;2023-05-02T12:36:25;14.60;72.80
56771;DHT22;42641;59.794;17.616;2023-05-02T12:38:54;14.70;72.90
56771;DHT22;42641;59.794;17.616;2023-05-02T12:41:36;14.20;72.90
56771;DHT22;42641;59.794;17.616;2023-05-02T12:44:04;13.70;73.30
56771;DHT22;42641;59.794;17.616;2023-05-02T12:46:31;13.20;75.60
56771;DHT22;42641;59.794;17.616;2023-05-02T12:49:02;12.80;76.60
56771;DHT22;42641;59.794;17.616;2023-05-02T12:51:28;13.80;75.90
56771;DHT22;42641;59.794;17.616;2023-05-02T12:53:56;14.80;74.60
56771;DHT22;42641;59.794;17.616;2023-05-02T12:56:23;14.50;73.40
56771;DHT22;42641;59.794;17.616;2023-05-02T12:58:49;14.50;77.00
56771;DHT22;42641;59.794;17.616;2023-05-02T13:01:16;14.70;73.60
56771;DHT22;42641;59.794;17.616;2023-05-02T13:03:43;14.50;72.80
56771;DHT22;42641;59.794;17.616;2023-05-02T13:06:09;14.20;73.70
56771;DHT22;42641;59.794;17.616;2023-05-02T13:08:37;13.90;74.10
56771;DHT22;42641;59.794;17.616;2023-05-02T13:11:04;13.60;74.00
56771;DHT22;42641;59.794;17.616;2023-05-02T13:13:30;14.20;74.70
56771;DHT22;42641;59.794;17.616;2023-05-02T13:15:57;15.60;73.80
56771;DHT22;42641;59.794;17.616;2023-05-02T13:18:24;16.70;70.60
56771;DHT22;42641;59.794;17.616;2023-05-02T13:20:50;17.20;65.40
56771;DHT22;42641;59.794;17.616;2023-05-02T13:23:17;17.20;63.10
56771;DHT22;42641;59.794;17.616;2023-05-02T13:25:43;17.90;66.10
56771;DHT22;42641;59.794;17.616;2023-05-02T13:28:10;18.40;64.70
56771;DHT22;42641;59.794;17.616;2023-05-02T13:30:36;18.40;62.70
56771;DHT22;42641;59.794;17.616;2023-05-02T13:33:03;17.70;63.40
56771;DHT22;42641;59.794;17.616;2023-05-02T13:35:29;17.50;62.70
56771;DHT22;42641;59.794;17.616;2023-05-02T13:37:56;16.50;62.20
56771;DHT22;42641;59.794;17.616;2023-05-02T13:40:22;17.20;66.70
56771;DHT22;42641;59.794;17.616;2023-05-02T13:42:48;18.10;62.60
56771;DHT22;42641;59.794;17.616;2023-05-02T13:45:15;18.50;62.00
56771;DHT22;42641;59.794;17.616;2023-05-02T13:47:44;18.70;60.70
56771;DHT22;42641;59.794;17.616;2023-05-02T13:50:11;18.80;57.40
56771;DHT22;42641;59.794;17.616;2023-05-02T13:52:38;18.20;58.20
56771;DHT22;42641;59.794;17.616;2023-05-02T13:55:04;16.70;60.20
56771;DHT22;42641;59.794;17.616;2023-05-02T13:57:32;15.10;63.60
56771;DHT22;42641;59.794;17.616;2023-05-02T13:59:58;14.50;69.40
56771;DHT22;42641;59.794;17.616;2023-05-02T14:02:25;14.10;69.80
56771;DHT22;42641;59.794;17.616;2023-05-02T14:04:51;14.20;71.20
56771;DHT22;42641;59.794;17.616;2023-05-02T14:07:18;15.10;66.20
56771;DHT22;42641;59.794;17.616;2023-05-02T14:09:44;14.90;66.10
56771;DHT22;42641;59.794;17.616;2023-05-02T14:12:11;14.30;65.80
56771;DHT22;42641;59.794;17.616;2023-05-02T14:14:37;13.60;68.70
56771;DHT22;42641;59.794;17.616;2023-05-02T14:17:03;13.30;69.90
56771;DHT22;42641;59.794;17.616;2023-05-02T14:19:30;12.90;69.50
56771;DHT22;42641;59.794;17.616;2023-05-02T14:21:58;12.60;70.20
56771;DHT22;42641;59.794;17.616;2023-05-02T14:24:24;13.20;69.60
56771;DHT22;42641;59.794;17.616;2023-05-02T14:26:51;13.50;69.80
56771;DHT22;42641;59.794;17.616;2023-05-02T14:29:17;13.40;68.60
56771;DHT22;42641;59.794;17.616;2023-05-02T14:31:45;13.40;68.50
56771;DHT22;42641;59.794;17.616;2023-05-02T14:34:11;14.40;68.00
56771;DHT22;42641;59.794;17.616;2023-05-02T14:36:38;15.30;64.70
56771;DHT22;42641;59.794;17.616;2023-05-02T14:39:04;16.00;64.30
56771;DHT22;42641;59.794;17.616;2023-05-02T14:41:31;16.10;62.40
56771;DHT22;42641;59.794;17.616;2023-05-02T14:43:57;16.20;65.20
56771;DHT22;42641;59.794;17.616;2023-05-02T14:46:24;16.50;62.90
56771;DHT22;42641;59.794;17.616;2023-05-02T14:48:50;17.30;62.10
56771;DHT22;42641;59.794;17.616;2023-05-02T14:51:17;18.40;61.50
56771;DHT22;42641;59.794;17.616;2023-05-02T14:53:43;19.20;56.80
56771;DHT22;42641;59.794;17.616;2023-05-02T14:56:13;18.80;55.80
56771;DHT22;42641;59.794;17.616;2023-05-02T14:58:41;18.90;55.70
56771;DHT22;42641;59.794;17.616;2023-05-02T15:01:18;19.00;56.90
56771;DHT22;42641;59.794;17.616;2023-05-02T15:03:44;19.60;55.00
56771;DHT22;42641;59.794;17.616;2023-05-02T15:06:13;18.80;53.60
56771;DHT22;42641;59.794;17.616;2023-05-02T15:08:40;16.90;54.70
56771;DHT22;42641;59.794;17.616;2023-05-02T15:11:09;15.30;58.00
56771;DHT22;42641;59.794;17.616;2023-05-02T15:13:36;14.70;59.90
56771;DHT22;42641;59.794;17.616;2023-05-02T15:16:03;14.10;62.10
56771;DHT22;42641;59.794;17.616;2023-05-02T15:18:30;13.70;62.90
56771;DHT22;42641;59.794;17.616;2023-05-02T15:20:56;14.40;65.30
56771;DHT22;42641;59.794;17.616;2023-05-02T15:23:23;15.90;65.20
56771;DHT22;42641;59.794;17.616;2023-05-02T15:25:50;16.80;60.20
56771;DHT22;42641;59.794;17.616;2023-05-02T15:28:16;16.80;60.80
56771;DHT22;42641;59.794;17.616;2023-05-02T15:30:42;17.30;58.70
56771;DHT22;42641;59.794;17.616;2023-05-02T15:33:09;17.80;59.30
56771;DHT22;42641;59.794;17.616;2023-05-02T15:35:35;18.50;58.20
56771;DHT22;42641;59.794;17.616;2023-05-02T15:38:02;18.90;56.60
56771;DHT22;42641;59.794;17.616;2023-05-02T15:40:28;19.20;55.60
56771;DHT22;42641;59.794;17.616;2023-05-02T15:42:55;19.20;54.80
56771;DHT22;42641;59.794;17.616;2023-05-02T15:45:21;19.20;55.70
56771;DHT22;42641;59.794;17.616;2023-05-02T15:47:48;18.60;54.80
56771;DHT22;42641;59.794;17.616;2023-05-02T15:50:14;18.10;55.80
56771;DHT22;42641;59.794;17.616;2023-05-02T15:52:41;17.60;55.50
56771;DHT22;42641;59.794;17.616;2023-05-02T15:55:08;17.10;57.40
56771;DHT22;42641;59.794;17.616;2023-05-02T15:57:34;16.40;57.70
56771;DHT22;42641;59.794;17.616;2023-05-02T16:00:01;16.00;59.10